Time;durP1;ratioP1;P1;durP2;ratioP2;P2;SDS_P1;SDS_P2;PMS_P1;PMS_P2;Temp;Humidity;BMP_temperature;BMP_pressure;BME280_temperature;BME280_humidity;BME280_pressure;Samples;Min_cycle;Max_cycle;Signal;HPM_P1;HPM_P2
2022/06/12 00:01:15;;;;;;;0.45;0.45;;;;;;;;;;5109610;28;20024;-78
2022/06/12 00:03:44;;;;;;;0.40;0.40;;;;;;;;;;5111985;28;20019;-77
2022/06/12 00:06:10;;;;;;;0.65;0.65;;;;;;;;;;5097350;28;20062;-77
2022/06/12 00:08:41;;;;;;;0.70;0.10;;;;;;;;;;5115708;28;20047;-78
2022/06/12 00:11:10;;;;;;;0.60;0.30;;;;;;;;;;5097629;28;20054;-77
2022/06/12 00:13:40;;;;;;;1.95;1.25;;;;;;;;;;5115627;28;20449;-78
2022/06/12 00:16:06;;;;;;;0.57;0.30;;;;;;;;;;5097324;28;20019;-78
2022/06/12 00:18:32;;;;;;;0.55;0.45;;;;;;;;;;5095947;28;20020;-78
2022/06/12 00:21:13;;;;;;;0.90;0.52;;;;;;;;;;5115451;28;20463;-78
2022/06/12 00:23:52;;;;;;;0.35;0.35;;;;;;;;;;5112624;28;20059;-78
2022/06/12 00:26:24;;;;;;;3.22;1.58;;;;;;;;;;5114355;28;20378;-78
2022/06/12 00:29:06;;;;;;;0.68;0.52;;;;;;;;;;5089531;28;20047;-79
2022/06/12 00:31:43;;;;;;;0.32;0.30;;;;;;;;;;5110628;28;20028;-78
2022/06/12 00:34:12;;;;;;;1.25;1.15;;;;;;;;;;5106703;28;20031;-78
2022/06/12 00:36:37;;;;;;;1.00;0.80;;;;;;;;;;5117380;28;20028;-78
2022/06/12 00:39:04;;;;;;;0.55;0.55;;;;;;;;;;5095589;28;20023;-78
2022/06/12 00:41:30;;;;;;;0.65;0.63;;;;;;;;;;5095972;28;20031;-77
2022/06/12 00:43:55;;;;;;;0.80;0.52;;;;;;;;;;5106102;28;20039;-78
2022/06/12 00:46:42;;;;;;;0.47;0.47;;;;;;;;;;5093451;28;20348;-78
2022/06/12 00:49:15;;;;;;;0.57;0.52;;;;;;;;;;5109819;28;20103;-78
2022/06/12 00:51:41;;;;;;;0.38;0.38;;;;;;;;;;5115581;28;20035;-77
2022/06/12 00:54:08;;;;;;;1.23;0.40;;;;;;;;;;5096604;28;20448;-77
2022/06/12 00:56:36;;;;;;;0.50;0.40;;;;;;;;;;5094492;28;20437;-78
2022/06/12 00:59:09;;;;;;;0.90;0.52;;;;;;;;;;5072137;28;20067;-77
2022/06/12 01:01:36;;;;;;;0.52;0.40;;;;;;;;;;5089490;28;20019;-77
2022/06/12 01:06:50;;;;;;;0.80;0.80;;;;;;;;;;5103897;28;20039;-76
2022/06/12 01:09:22;;;;;;;1.67;0.95;;;;;;;;;;5088497;28;20015;-78
2022/06/12 01:11:48;;;;;;;0.20;0.20;;;;;;;;;;5110526;28;20035;-78
2022/06/12 01:14:19;;;;;;;1.75;0.75;;;;;;;;;;5096034;28;20035;-78
2022/06/12 01:16:49;;;;;;;0.52;0.50;;;;;;;;;;5114756;28;20583;-78
2022/06/12 01:19:34;;;;;;;1.65;0.88;;;;;;;;;;5073502;28;20036;-78
2022/06/12 01:22:21;;;;;;;1.05;0.77;;;;;;;;;;5114328;28;20023;-78
2022/06/12 01:24:52;;;;;;;0.57;0.57;;;;;;;;;;5113906;28;20111;-78
2022/06/12 01:27:39;;;;;;;2.03;0.60;;;;;;;;;;5113450;28;20039;-79
2022/06/12 01:30:21;;;;;;;0.35;0.35;;;;;;;;;;5109142;28;20027;-78
2022/06/12 01:33:32;;;;;;;1.20;0.70;;;;;;;;;;5070987;28;20362;-79
2022/06/12 01:36:20;;;;;;;0.43;0.28;;;;;;;;;;5023465;28;20040;-79
2022/06/12 01:38:53;;;;;;;3.83;1.00;;;;;;;;;;5090672;28;20042;-78
2022/06/12 01:41:30;;;;;;;0.80;0.68;;;;;;;;;;5096738;28;20047;-79
2022/06/12 01:44:13;;;;;;;1.23;1.13;;;;;;;;;;5090847;28;20093;-79
2022/06/12 01:47:01;;;;;;;0.52;0.52;;;;;;;;;;5088960;28;20452;-78
2022/06/12 01:50:02;;;;;;;2.10;1.15;;;;;;;;;;5094242;28;20020;-79
2022/06/12 01:52:51;;;;;;;0.47;0.47;;;;;;;;;;5094551;28;20034;-77
2022/06/12 01:55:24;;;;;;;5.68;0.73;;;;;;;;;;5093787;28;20472;-79
2022/06/12 01:58:12;;;;;;;0.43;0.43;;;;;;;;;;5071204;28;20438;-79
2022/06/12 02:00:41;;;;;;;0.85;0.85;;;;;;;;;;5056860;28;20028;-79
2022/06/12 02:03:13;;;;;;;1.20;1.13;;;;;;;;;;5089073;28;20027;-78
2022/06/12 02:05:41;;;;;;;2.40;1.10;;;;;;;;;;5090310;28;20024;-79
2022/06/12 02:08:17;;;;;;;0.75;0.35;;;;;;;;;;5112351;28;20085;-78
2022/06/12 02:10:50;;;;;;;0.98;0.95;;;;;;;;;;5096076;28;20344;-77
2022/06/12 02:13:22;;;;;;;5.00;0.98;;;;;;;;;;5087565;28;20024;-78
2022/06/12 02:16:13;;;;;;;0.80;0.57;;;;;;;;;;5107910;28;20023;-79
2022/06/12 02:18:50;;;;;;;2.92;0.82;;;;;;;;;;5095966;28;20285;-79
2022/06/12 02:21:22;;;;;;;1.83;0.57;;;;;;;;;;5094897;28;20037;-79
2022/06/12 02:23:53;;;;;;;;;;;;;;;;;;5099888;28;20027;-76
2022/06/12 02:26:29;;;;;;;3.17;1.15;;;;;;;;;;5073809;28;19912;-79
2022/06/12 02:29:02;;;;;;;0.80;0.80;;;;;;;;;;5088454;28;20031;-77
2022/06/12 02:31:41;;;;;;;0.68;0.68;;;;;;;;;;5071904;28;20445;-77
2022/06/12 02:34:12;;;;;;;0.30;0.30;;;;;;;;;;5096560;28;20157;-79
2022/06/12 02:36:43;;;;;;;1.70;0.60;;;;;;;;;;5096815;28;20028;-79
2022/06/12 02:39:18;;;;;;;0.20;0.10;;;;;;;;;;5098147;28;20059;-77
2022/06/12 02:41:47;;;;;;;1.77;1.13;;;;;;;;;;5100341;28;20020;-79
2022/06/12 02:44:18;;;;;;;0.65;0.65;;;;;;;;;;5088095;28;20116;-79
2022/06/12 02:46:49;;;;;;;0.20;0.20;;;;;;;;;;5100836;28;20019;-79
2022/06/12 02:49:15;;;;;;;0.30;0.22;;;;;;;;;;5100156;28;20016;-78
2022/06/12 02:52:28;;;;;;;1.80;0.98;;;;;;;;;;5099798;28;20519;-80
2022/06/12 02:55:20;;;;;;;1.05;0.57;;;;;;;;;;5010899;28;20460;-79
2022/06/12 02:58:04;;;;;;;;;;;;;;;;;;5084527;28;20031;-78
2022/06/12 03:00:43;;;;;;;1.27;1.00;;;;;;;;;;5097916;28;20010;-79
2022/06/12 03:03:46;;;;;;;1.17;0.95;;;;;;;;;;5099006;28;20051;-79
2022/06/12 03:06:12;;;;;;;1.70;0.63;;;;;;;;;;5111273;28;20513;-79
2022/06/12 03:08:42;;;;;;;1.25;0.93;;;;;;;;;;5091398;28;20036;-78
2022/06/12 03:11:29;;;;;;;0.98;0.60;;;;;;;;;;5107425;28;21558;-79
2022/06/12 03:13:58;;;;;;;0.43;0.43;;;;;;;;;;5112383;28;20074;-78
2022/06/12 03:16:34;;;;;;;1.23;0.70;;;;;;;;;;5111167;28;20084;-78
2022/06/12 03:19:03;;;;;;;0.75;0.75;;;;;;;;;;5108771;28;20036;-78
2022/06/12 03:21:33;;;;;;;2.33;1.27;;;;;;;;;;5114219;28;20364;-78
2022/06/12 03:24:12;;;;;;;1.95;0.52;;;;;;;;;;5109059;28;20395;-78
2022/06/12 03:26:40;;;;;;;0.20;0.20;;;;;;;;;;5114755;28;20036;-79
2022/06/12 03:29:15;;;;;;;0.43;0.43;;;;;;;;;;5115615;28;20038;-77
2022/06/12 03:32:18;;;;;;;0.73;0.50;;;;;;;;;;5113004;28;20372;-80
2022/06/12 03:35:09;;;;;;;0.22;0.22;;;;;;;;;;5111487;28;20023;-78
2022/06/12 03:37:45;;;;;;;0.38;0.30;;;;;;;;;;5095191;28;20035;-79
2022/06/12 03:40:23;;;;;;;1.10;0.60;;;;;;;;;;5088226;28;20024;-79
2022/06/12 03:42:54;;;;;;;1.17;0.85;;;;;;;;;;5081722;28;20028;-80
2022/06/12 03:45:24;;;;;;;1.95;0.75;;;;;;;;;;5095898;28;20395;-80
2022/06/12 03:48:21;;;;;;;1.05;0.38;;;;;;;;;;5077674;28;20032;-78
2022/06/12 03:50:56;;;;;;;0.45;0.45;;;;;;;;;;5092108;28;20024;-79
2022/06/12 03:53:30;;;;;;;0.85;0.32;;;;;;;;;;5106387;28;20102;-79
2022/06/12 03:58:57;;;;;;;1.30;0.90;;;;;;;;;;5099059;28;20034;-78
2022/06/12 04:01:23;;;;;;;1.13;0.85;;;;;;;;;;5100417;28;20020;-79
2022/06/12 04:03:51;;;;;;;1.75;0.40;;;;;;;;;;5092731;28;20031;-78
2022/06/12 04:06:20;;;;;;;1.45;0.77;;;;;;;;;;5077442;28;20020;-78
2022/06/12 04:08:51;;;;;;;0.17;0.17;;;;;;;;;;5109245;28;20026;-77
2022/06/12 04:11:21;;;;;;;0.40;0.40;;;;;;;;;;5095837;28;20047;-79
2022/06/12 04:13:47;;;;;;;0.17;0.15;;;;;;;;;;5097136;28;20035;-77
2022/06/12 04:16:19;;;;;;;0.65;0.65;;;;;;;;;;5079761;28;20026;-79
2022/06/12 04:18:46;;;;;;;1.00;0.50;;;;;;;;;;5111570;28;20065;-79
2022/06/12 04:21:28;;;;;;;0.50;0.50;;;;;;;;;;5095246;28;20062;-79
2022/06/12 04:24:16;;;;;;;1.70;0.98;;;;;;;;;;5097228;28;20388;-79
2022/06/12 04:26:45;;;;;;;0.28;0.28;;;;;;;;;;5096405;28;20036;-79
2022/06/12 04:29:10;;;;;;;0.20;0.20;;;;;;;;;;5106731;28;20030;-79
2022/06/12 04:31:35;;;;;;;0.85;0.77;;;;;;;;;;5096150;28;20035;-78
2022/06/12 04:34:21;;;;;;;0.60;0.43;;;;;;;;;;5114955;28;20031;-79
2022/06/12 04:36:50;;;;;;;1.13;1.02;;;;;;;;;;5115011;28;20043;-79
2022/06/12 04:39:21;;;;;;;0.30;0.20;;;;;;;;;;5114442;28;20086;-77
2022/06/12 04:41:47;;;;;;;0.32;0.32;;;;;;;;;;5112926;28;20526;-79
2022/06/12 04:44:12;;;;;;;1.70;0.52;;;;;;;;;;5109783;28;20032;-78
2022/06/12 04:46:40;;;;;;;0.80;0.73;;;;;;;;;;5115090;28;20368;-79
2022/06/12 04:49:06;;;;;;;1.60;0.50;;;;;;;;;;5095460;28;20038;-78
2022/06/12 04:51:32;;;;;;;1.17;0.63;;;;;;;;;;5081792;28;20051;-78
2022/06/12 04:53:58;;;;;;;0.40;0.40;;;;;;;;;;5112461;28;20034;-78
2022/06/12 04:56:27;;;;;;;0.75;0.68;;;;;;;;;;5110650;28;20114;-78
2022/06/12 04:58:53;;;;;;;2.45;0.80;;;;;;;;;;5087137;28;20020;-79
2022/06/12 05:01:20;;;;;;;9.82;0.75;;;;;;;;;;5110896;28;20397;-78
2022/06/12 05:03:46;;;;;;;0.20;0.20;;;;;;;;;;5107199;28;20057;-79
2022/06/12 05:06:15;;;;;;;0.35;0.35;;;;;;;;;;5097065;28;20106;-78
2022/06/12 05:08:41;;;;;;;1.88;1.02;;;;;;;;;;5091914;28;20103;-77
2022/06/12 05:11:06;;;;;;;0.40;0.40;;;;;;;;;;5096507;28;20038;-79
2022/06/12 05:13:32;;;;;;;0.38;0.38;;;;;;;;;;5096152;28;20088;-79
2022/06/12 05:15:59;;;;;;;0.20;0.20;;;;;;;;;;5076252;28;20039;-77
2022/06/12 05:18:29;;;;;;;0.15;0.15;;;;;;;;;;5113841;28;20055;-78
2022/06/12 05:20:57;;;;;;;0.15;0.15;;;;;;;;;;5113420;28;20035;-79
2022/06/12 05:23:22;;;;;;;2.45;0.85;;;;;;;;;;5106069;28;20114;-78
2022/06/12 05:25:48;;;;;;;0.55;0.52;;;;;;;;;;5113956;28;20142;-78
2022/06/12 05:28:15;;;;;;;0.70;0.70;;;;;;;;;;5113350;28;20042;-79
2022/06/12 05:30:42;;;;;;;0.17;0.17;;;;;;;;;;5073514;28;20396;-78
2022/06/12 05:33:08;;;;;;;4.57;0.80;;;;;;;;;;5108350;28;20016;-80
2022/06/12 05:35:37;;;;;;;0.32;0.32;;;;;;;;;;5095692;28;20028;-79
2022/06/12 05:38:03;;;;;;;0.52;0.30;;;;;;;;;;5085580;28;20065;-80
2022/06/12 05:40:30;;;;;;;0.70;0.65;;;;;;;;;;5105506;28;20020;-80
2022/06/12 05:42:56;;;;;;;0.38;0.20;;;;;;;;;;5078207;28;20214;-80
2022/06/12 05:45:24;;;;;;;0.15;0.15;;;;;;;;;;5114178;28;20103;-78
2022/06/12 05:48:11;;;;;;;0.57;0.57;;;;;;;;;;5095310;28;20031;-80
2022/06/12 05:50:46;;;;;;;0.50;0.22;;;;;;;;;;5093313;28;20433;-80
2022/06/12 05:53:12;;;;;;;0.47;0.47;;;;;;;;;;5094729;28;20026;-79
2022/06/12 05:55:37;;;;;;;0.43;0.20;;;;;;;;;;5103186;28;20404;-78
2022/06/12 05:58:03;;;;;;;0.40;0.40;;;;;;;;;;5096393;28;20050;-79
2022/06/12 06:00:30;;;;;;;0.55;0.40;;;;;;;;;;5109597;28;20479;-78
2022/06/12 06:02:56;;;;;;;0.40;0.20;;;;;;;;;;5112471;28;20042;-79
2022/06/12 06:05:22;;;;;;;0.70;0.70;;;;;;;;;;5113502;28;20024;-79
2022/06/12 06:07:49;;;;;;;1.35;0.25;;;;;;;;;;5097674;28;20034;-79
2022/06/12 06:10:19;;;;;;;0.00;0.00;;;;;;;;;;5073488;28;20085;-79
2022/06/12 06:12:45;;;;;;;2.72;0.40;;;;;;;;;;5114365;28;20348;-79
2022/06/12 06:15:10;;;;;;;3.92;0.63;;;;;;;;;;5094001;28;20035;-79
2022/06/12 06:17:36;;;;;;;0.17;0.17;;;;;;;;;;5117485;28;20024;-79
2022/06/12 06:20:05;;;;;;;0.30;0.28;;;;;;;;;;5114556;28;20028;-79
2022/06/12 06:22:31;;;;;;;0.65;0.63;;;;;;;;;;5095760;28;20448;-80
2022/06/12 06:24:57;;;;;;;0.40;0.40;;;;;;;;;;5110031;28;20148;-80
2022/06/12 06:27:27;;;;;;;0.00;0.00;;;;;;;;;;5099605;28;20122;-78
2022/06/12 06:29:53;;;;;;;0.10;0.10;;;;;;;;;;5092576;28;20019;-79
2022/06/12 06:32:18;;;;;;;0.68;0.40;;;;;;;;;;5101042;28;20039;-80
2022/06/12 06:34:46;;;;;;;0.30;0.30;;;;;;;;;;5107508;28;20414;-80
2022/06/12 06:37:12;;;;;;;0.30;0.25;;;;;;;;;;5116805;28;20023;-78
2022/06/12 06:39:40;;;;;;;0.20;0.20;;;;;;;;;;5098911;28;20043;-77
2022/06/12 06:42:10;;;;;;;0.55;0.55;;;;;;;;;;5115537;28;20027;-79
2022/06/12 06:47:20;;;;;;;2.65;0.75;;;;;;;;;;5101475;28;20034;-79
2022/06/12 06:49:46;;;;;;;0.10;0.05;;;;;;;;;;5084679;28;20016;-78
2022/06/12 06:52:13;;;;;;;0.63;0.63;;;;;;;;;;5095592;28;20104;-77
2022/06/12 06:54:42;;;;;;;0.65;0.38;;;;;;;;;;5108826;28;20035;-78
2022/06/12 06:57:11;;;;;;;0.28;0.28;;;;;;;;;;5108872;28;20021;-79
2022/06/12 06:59:37;;;;;;;7.78;1.75;;;;;;;;;;5080665;28;20845;-79
2022/06/12 07:02:03;;;;;;;1.20;0.40;;;;;;;;;;5117076;28;20087;-76
2022/06/12 07:04:28;;;;;;;0.10;0.10;;;;;;;;;;5116364;28;20023;-79
2022/06/12 07:06:56;;;;;;;0.35;0.32;;;;;;;;;;5117141;28;20520;-79
2022/06/12 07:09:24;;;;;;;0.68;0.10;;;;;;;;;;5097270;28;20023;-79
2022/06/12 07:11:50;;;;;;;1.10;0.40;;;;;;;;;;5103859;28;20020;-80
2022/06/12 07:14:17;;;;;;;0.43;0.43;;;;;;;;;;5069356;28;20110;-79
2022/06/12 07:16:43;;;;;;;2.08;0.43;;;;;;;;;;5113902;28;20124;-79
2022/06/12 07:19:08;;;;;;;0.98;0.32;;;;;;;;;;5109287;28;20023;-80
2022/06/12 07:21:34;;;;;;;0.68;0.22;;;;;;;;;;5098811;28;20084;-80
2022/06/12 07:23:59;;;;;;;0.00;0.00;;;;;;;;;;5101832;28;20453;-78
2022/06/12 07:26:28;;;;;;;1.20;0.73;;;;;;;;;;5084122;28;20019;-79
2022/06/12 07:28:56;;;;;;;0.45;0.30;;;;;;;;;;5102306;28;20024;-80
2022/06/12 07:31:24;;;;;;;2.03;0.93;;;;;;;;;;5114844;28;20047;-80
2022/06/12 07:33:50;;;;;;;0.68;0.57;;;;;;;;;;5110119;28;20038;-80
2022/06/12 07:36:18;;;;;;;1.08;0.70;;;;;;;;;;5098642;28;20029;-81
2022/06/12 07:38:45;;;;;;;0.35;0.25;;;;;;;;;;5087802;28;20359;-81
2022/06/12 07:41:12;;;;;;;2.78;0.57;;;;;;;;;;5106528;28;20468;-80
2022/06/12 07:43:39;;;;;;;0.30;0.30;;;;;;;;;;5100531;28;20031;-78
2022/06/12 07:46:06;;;;;;;0.40;0.38;;;;;;;;;;5079522;28;20066;-81
2022/06/12 07:48:35;;;;;;;1.45;0.85;;;;;;;;;;5082907;28;20390;-81
2022/06/12 07:51:07;;;;;;;1.20;0.85;;;;;;;;;;5105490;28;20020;-79
2022/06/12 07:53:33;;;;;;;1.83;0.98;;;;;;;;;;5110730;28;20452;-80
2022/06/12 07:55:59;;;;;;;0.98;0.57;;;;;;;;;;5069441;28;20504;-80
2022/06/12 07:58:24;;;;;;;0.30;0.30;;;;;;;;;;5098280;28;20112;-79
2022/06/12 08:00:52;;;;;;;0.85;0.50;;;;;;;;;;5113993;28;20031;-80
2022/06/12 08:03:18;;;;;;;1.50;1.20;;;;;;;;;;5115340;28;20364;-79
2022/06/12 08:05:43;;;;;;;0.70;0.68;;;;;;;;;;5096980;28;20032;-79
2022/06/12 08:08:09;;;;;;;0.82;0.40;;;;;;;;;;5111993;28;20414;-80
2022/06/12 08:10:37;;;;;;;0.65;0.30;;;;;;;;;;5110015;28;20436;-80
2022/06/12 08:13:06;;;;;;;0.10;0.10;;;;;;;;;;5106140;28;20076;-78
2022/06/12 08:15:33;;;;;;;0.65;0.40;;;;;;;;;;5098559;28;20106;-78
2022/06/12 08:17:58;;;;;;;0.43;0.43;;;;;;;;;;5115018;28;20020;-78
2022/06/12 08:20:26;;;;;;;3.72;1.48;;;;;;;;;;5113902;28;20034;-80
2022/06/12 08:23:03;;;;;;;1.48;0.68;;;;;;;;;;5093907;28;20111;-79
2022/06/12 08:25:31;;;;;;;0.40;0.40;;;;;;;;;;5093359;28;20024;-78
2022/06/12 08:27:57;;;;;;;6.43;0.40;;;;;;;;;;5077183;28;20471;-79
2022/06/12 08:30:22;;;;;;;2.13;0.85;;;;;;;;;;5105281;28;20055;-78
2022/06/12 08:32:49;;;;;;;0.70;0.50;;;;;;;;;;5104328;28;20027;-77
2022/06/12 08:35:19;;;;;;;0.63;0.25;;;;;;;;;;5110316;28;20031;-79
2022/06/12 08:37:47;;;;;;;0.90;0.65;;;;;;;;;;5105998;28;20024;-80
2022/06/12 08:40:38;;;;;;;0.38;0.28;;;;;;;;;;5090683;28;20036;-78
2022/06/12 08:43:24;;;;;;;0.13;0.13;;;;;;;;;;5089860;28;20103;-78
2022/06/12 08:45:51;;;;;;;3.33;0.73;;;;;;;;;;5078084;28;20024;-79
2022/06/12 08:48:45;;;;;;;0.30;0.20;;;;;;;;;;5070859;28;20043;-77
2022/06/12 08:51:19;;;;;;;0.73;0.40;;;;;;;;;;5115596;28;20082;-77
2022/06/12 08:53:47;;;;;;;0.68;0.15;;;;;;;;;;5096254;28;20536;-79
2022/06/12 08:56:22;;;;;;;0.10;0.10;;;;;;;;;;5101027;28;20414;-79
2022/06/12 08:59:06;;;;;;;0.22;0.22;;;;;;;;;;5097205;28;20030;-78
2022/06/12 09:01:31;;;;;;;0.10;0.10;;;;;;;;;;5115275;28;20035;-79
2022/06/12 09:03:57;;;;;;;0.82;0.60;;;;;;;;;;5088865;28;20024;-80
2022/06/12 09:06:51;;;;;;;0.28;0.20;;;;;;;;;;5109363;28;20056;-80
2022/06/12 09:09:38;;;;;;;0.35;0.30;;;;;;;;;;5095066;28;20032;-80
2022/06/12 09:12:33;;;;;;;0.65;0.40;;;;;;;;;;5106089;28;20085;-79
2022/06/12 09:15:10;;;;;;;0.40;0.40;;;;;;;;;;5092950;28;20369;-77
2022/06/12 09:18:04;;;;;;;0.30;0.10;;;;;;;;;;5106362;28;20091;-79
2022/06/12 09:20:34;;;;;;;0.65;0.15;;;;;;;;;;5107213;28;20035;-78
2022/06/12 09:23:11;;;;;;;0.70;0.20;;;;;;;;;;5105466;28;20043;-78
2022/06/12 09:25:43;;;;;;;0.28;0.28;;;;;;;;;;5105143;28;20042;-80
2022/06/12 09:28:38;;;;;;;1.48;0.20;;;;;;;;;;5109226;28;20050;-79
2022/06/12 09:31:09;;;;;;;0.10;0.10;;;;;;;;;;5097855;28;20164;-80
2022/06/12 09:34:06;;;;;;;0.10;0.10;;;;;;;;;;5094253;28;20031;-78
2022/06/12 09:36:40;;;;;;;0.00;0.00;;;;;;;;;;5105773;28;20039;-79
2022/06/12 09:39:31;;;;;;;0.00;0.00;;;;;;;;;;5104685;28;20471;-79
2022/06/12 09:42:09;;;;;;;0.93;0.73;;;;;;;;;;5107083;28;20019;-76
2022/06/12 09:45:02;;;;;;;0.10;0.10;;;;;;;;;;5090939;28;20529;-76
2022/06/12 09:47:41;;;;;;;0.30;0.22;;;;;;;;;;5079937;28;20032;-77
2022/06/12 09:50:43;;;;;;;0.00;0.00;;;;;;;;;;5114160;28;20046;-78
2022/06/12 09:53:31;;;;;;;6.72;0.85;;;;;;;;;;5029142;28;20479;-78
2022/06/12 09:56:03;;;;;;;0.25;0.25;;;;;;;;;;5088696;28;20020;-78
2022/06/12 09:58:35;;;;;;;0.57;0.50;;;;;;;;;;5114252;28;20129;-79
2022/06/12 10:01:04;;;;;;;0.63;0.28;;;;;;;;;;5084662;28;20028;-78
2022/06/12 10:04:05;;;;;;;0.13;0.13;;;;;;;;;;5096571;28;20023;-78
2022/06/12 10:06:42;;;;;;;0.60;0.60;;;;;;;;;;5084301;28;20157;-79
2022/06/12 10:09:29;;;;;;;2.20;0.30;;;;;;;;;;5102738;28;20055;-82
2022/06/12 10:12:02;;;;;;;3.50;0.52;;;;;;;;;;5118201;28;20683;-80
2022/06/12 10:14:33;;;;;;;0.93;0.28;;;;;;;;;;5097644;28;20448;-78
2022/06/12 10:17:02;;;;;;;0.47;0.40;;;;;;;;;;5121161;28;20336;-81
2022/06/12 10:19:27;;;;;;;0.63;0.20;;;;;;;;;;5100256;28;20031;-81
2022/06/12 10:21:58;;;;;;;0.32;0.32;;;;;;;;;;5098403;28;20038;-80
2022/06/12 10:24:25;;;;;;;0.80;0.60;;;;;;;;;;5101568;28;20020;-82
2022/06/12 10:26:59;;;;;;;0.32;0.32;;;;;;;;;;5116151;28;20076;-80
2022/06/12 10:29:25;;;;;;;4.13;0.25;;;;;;;;;;5119002;28;20047;-78
2022/06/12 10:32:01;;;;;;;1.27;1.17;;;;;;;;;;5102824;28;20420;-80
2022/06/12 10:34:35;;;;;;;1.45;0.55;;;;;;;;;;5103406;28;20109;-79
2022/06/12 10:37:23;;;;;;;1.95;0.38;;;;;;;;;;5113758;27;20118;-79
2022/06/12 10:40:00;;;;;;;0.50;0.20;;;;;;;;;;5093533;28;20096;-79
2022/06/12 10:42:45;;;;;;;1.00;0.85;;;;;;;;;;5111997;27;20020;-80
2022/06/12 10:45:28;;;;;;;0.38;0.20;;;;;;;;;;5111150;28;20032;-79
2022/06/12 10:47:55;;;;;;;0.45;0.45;;;;;;;;;;5118128;28;20035;-79
2022/06/12 10:50:51;;;;;;;2.00;0.38;;;;;;;;;;5116664;28;20063;-76
2022/06/12 10:53:18;;;;;;;9.52;0.73;;;;;;;;;;5054040;28;20028;-78
2022/06/12 10:55:57;;;;;;;0.22;0.10;;;;;;;;;;5114210;28;20533;-78
2022/06/12 10:58:43;;;;;;;1.67;0.57;;;;;;;;;;5113816;28;20028;-78
2022/06/12 11:01:35;;;;;;;0.85;0.20;;;;;;;;;;5110788;28;20108;-80
2022/06/12 11:04:23;;;;;;;0.85;0.63;;;;;;;;;;5103354;28;20110;-77
2022/06/12 11:07:15;;;;;;;0.32;0.32;;;;;;;;;;5090919;28;20027;-79
2022/06/12 11:10:05;;;;;;;0.10;0.10;;;;;;;;;;5064325;28;20433;-79
2022/06/12 11:12:46;;;;;;;0.70;0.20;;;;;;;;;;5098050;28;20349;-79
2022/06/12 11:15:21;;;;;;;1.27;0.77;;;;;;;;;;5116223;28;20023;-79
2022/06/12 11:18:01;;;;;;;0.32;0.30;;;;;;;;;;5097937;28;20106;-79
2022/06/12 11:20:40;;;;;;;0.77;0.47;;;;;;;;;;5094281;28;20028;-78
2022/06/12 11:24:06;;;;;;;0.32;0.32;;;;;;;;;;5112440;28;20114;-78
2022/06/12 11:27:23;;;;;;;1.95;0.47;;;;;;;;;;5107293;28;20024;-78
2022/06/12 11:33:01;;;;;;;0.40;0.40;;;;;;;;;;4989666;28;20034;-78
2022/06/12 11:36:03;;;;;;;0.63;0.57;;;;;;;;;;5011716;28;20026;-79
2022/06/12 11:39:35;;;;;;;0.65;0.40;;;;;;;;;;5010575;28;20045;-79
2022/06/12 11:42:22;;;;;;;0.40;0.40;;;;;;;;;;4986640;28;20533;-78
2022/06/12 11:44:59;;;;;;;1.00;0.82;;;;;;;;;;4979534;28;20035;-78
2022/06/12 11:47:44;;;;;;;0.47;0.25;;;;;;;;;;4976367;28;20047;-79
2022/06/12 11:50:29;;;;;;;0.85;0.50;;;;;;;;;;4976924;28;20043;-78
2022/06/12 11:53:00;;;;;;;1.55;1.17;;;;;;;;;;4974127;28;20034;-76
2022/06/12 11:56:07;;;;;;;1.95;0.52;;;;;;;;;;4961680;28;20026;-77
2022/06/12 11:58:51;;;;;;;0.20;0.20;;;;;;;;;;4980997;28;20073;-77
2022/06/12 12:01:40;;;;;;;0.38;0.38;;;;;;;;;;4981756;28;20059;-77
2022/06/12 12:04:23;;;;;;;0.45;0.32;;;;;;;;;;4995048;28;20159;-77
2022/06/12 12:07:19;;;;;;;1.17;0.65;;;;;;;;;;5029642;28;20177;-76
2022/06/12 12:10:21;;;;;;;1.85;0.80;;;;;;;;;;5042379;28;20020;-79
2022/06/12 12:12:53;;;;;;;0.35;0.20;;;;;;;;;;5085517;28;20342;-77
2022/06/12 12:15:27;;;;;;;0.28;0.25;;;;;;;;;;5093041;28;20061;-77
2022/06/12 12:17:56;;;;;;;1.75;0.93;;;;;;;;;;5095731;28;20037;-77
2022/06/12 12:20:26;;;;;;;1.00;0.65;;;;;;;;;;5090431;28;20460;-76
2022/06/12 12:23:01;;;;;;;1.40;0.93;;;;;;;;;;5088129;28;20119;-77
2022/06/12 12:25:31;;;;;;;1.08;0.80;;;;;;;;;;5089345;28;20457;-77
2022/06/12 12:28:01;;;;;;;2.20;1.02;;;;;;;;;;5093621;28;20474;-76
2022/06/12 12:30:33;;;;;;;0.83;0.60;;;;;;;;;;5096600;28;20027;-78
2022/06/12 12:33:02;;;;;;;5.20;0.47;;;;;;;;;;5094586;28;20360;-77
2022/06/12 12:41:35;;;;;;;0.55;0.55;;;;;;;;;;5098004;28;20034;-77
2022/06/12 12:44:03;;;;;;;2.08;1.35;;;;;;;;;;5108958;28;20033;-76
2022/06/12 12:46:49;;;;;;;3.85;1.15;;;;;;;;;;5104289;28;20100;-76
2022/06/12 12:49:30;;;;;;;2.80;1.17;;;;;;;;;;5084510;28;20575;-75
2022/06/12 12:52:04;;;;;;;5.40;1.35;;;;;;;;;;5083063;28;20020;-76
2022/06/12 12:54:51;;;;;;;1.58;1.08;;;;;;;;;;5108419;28;20054;-76
2022/06/12 12:57:37;;;;;;;1.65;0.30;;;;;;;;;;5110235;28;20031;-76
2022/06/12 13:00:20;;;;;;;0.43;0.40;;;;;;;;;;5113776;28;20027;-75
2022/06/12 13:02:53;;;;;;;3.22;1.00;;;;;;;;;;5112250;28;20030;-77
2022/06/12 13:05:21;;;;;;;0.85;0.40;;;;;;;;;;5118890;27;20035;-76
2022/06/12 13:08:02;;;;;;;0.20;0.20;;;;;;;;;;5111399;28;20458;-76
2022/06/12 13:10:50;;;;;;;0.75;0.75;;;;;;;;;;5109325;28;20015;-76
2022/06/12 13:13:45;;;;;;;0.65;0.30;;;;;;;;;;5101727;28;20028;-76
2022/06/12 13:16:30;;;;;;;0.40;0.40;;;;;;;;;;5098319;28;20028;-75
2022/06/12 13:19:13;;;;;;;0.90;0.60;;;;;;;;;;5101484;28;20032;-79
2022/06/12 13:22:00;;;;;;;1.02;0.30;;;;;;;;;;5097718;28;20036;-81
2022/06/12 13:24:34;;;;;;;0.40;0.22;;;;;;;;;;5072070;28;20107;-79
2022/06/12 13:27:30;;;;;;;1.58;0.47;;;;;;;;;;5107334;28;20030;-78
2022/06/12 13:29:55;;;;;;;0.35;0.35;;;;;;;;;;5099153;28;20035;-78
2022/06/12 13:32:29;;;;;;;1.65;0.40;;;;;;;;;;5113317;28;20023;-78
2022/06/12 13:35:03;;;;;;;1.67;0.85;;;;;;;;;;5111876;28;20433;-77
2022/06/12 13:37:31;;;;;;;0.85;0.40;;;;;;;;;;5093894;28;20111;-77
2022/06/12 13:40:02;;;;;;;1.05;0.73;;;;;;;;;;5107873;28;20026;-78
2022/06/12 13:42:31;;;;;;;8.27;0.38;;;;;;;;;;5108779;28;20019;-79
2022/06/12 13:44:59;;;;;;;3.60;0.50;;;;;;;;;;5114922;28;20107;-78
2022/06/12 13:47:35;;;;;;;2.38;0.82;;;;;;;;;;5070666;28;20039;-78
2022/06/12 13:50:11;;;;;;;0.63;0.20;;;;;;;;;;5082658;28;20035;-79
2022/06/12 13:53:03;;;;;;;0.50;0.30;;;;;;;;;;5113474;28;20024;-84
2022/06/12 13:55:40;;;;;;;2.92;0.60;;;;;;;;;;5089975;28;20027;-76
2022/06/12 13:58:09;;;;;;;5.05;0.45;;;;;;;;;;5108353;28;20051;-77
2022/06/12 14:00:52;;;;;;;0.50;0.50;;;;;;;;;;5102263;28;20038;-77
2022/06/12 14:03:20;;;;;;;0.73;0.25;;;;;;;;;;5087560;28;20348;-77
2022/06/12 14:05:49;;;;;;;9.52;1.33;;;;;;;;;;5091849;28;20157;-75
2022/06/12 14:08:15;;;;;;;0.25;0.25;;;;;;;;;;5086814;28;20448;-76
2022/06/12 14:10:43;;;;;;;1.08;0.70;;;;;;;;;;5103699;28;20038;-76
2022/06/12 14:13:41;;;;;;;4.03;1.10;;;;;;;;;;5098930;28;20469;-77
2022/06/12 14:16:07;;;;;;;0.47;0.40;;;;;;;;;;5077739;28;20546;-76
2022/06/12 14:18:32;;;;;;;1.25;0.70;;;;;;;;;;5095395;28;20035;-76
2022/06/12 14:21:12;;;;;;;1.80;0.40;;;;;;;;;;5112463;28;20038;-77
2022/06/12 14:23:45;;;;;;;0.63;0.30;;;;;;;;;;5091721;28;20051;-76
2022/06/12 14:26:41;;;;;;;6.35;0.55;;;;;;;;;;5093709;28;20425;-76
2022/06/12 14:29:30;;;;;;;0.10;0.10;;;;;;;;;;5108915;28;20036;-76
2022/06/12 14:32:05;;;;;;;9.05;0.60;;;;;;;;;;5109162;28;20087;-76
2022/06/12 14:34:30;;;;;;;0.17;0.17;;;;;;;;;;5112690;28;20092;-76
2022/06/12 14:37:01;;;;;;;0.60;0.43;;;;;;;;;;5097963;28;20403;-77
2022/06/12 14:39:31;;;;;;;1.25;0.55;;;;;;;;;;5116355;28;20375;-77
2022/06/12 14:42:05;;;;;;;1.60;0.15;;;;;;;;;;5116354;28;20030;-77
2022/06/12 14:44:31;;;;;;;0.77;0.77;;;;;;;;;;5098497;28;20028;-76
2022/06/12 14:47:26;;;;;;;0.75;0.75;;;;;;;;;;5115061;27;20027;-74
2022/06/12 14:49:55;;;;;;;0.20;0.15;;;;;;;;;;5114843;28;20108;-76
2022/06/12 14:52:23;;;;;;;0.75;0.52;;;;;;;;;;5113953;28;20034;-77
2022/06/12 14:54:50;;;;;;;0.30;0.30;;;;;;;;;;5116245;28;20429;-76
2022/06/12 14:57:21;;;;;;;0.15;0.15;;;;;;;;;;5114887;28;20123;-76
2022/06/12 14:59:46;;;;;;;0.40;0.40;;;;;;;;;;5096694;28;20035;-77
2022/06/12 15:02:20;;;;;;;0.13;0.13;;;;;;;;;;5113403;28;20019;-76
2022/06/12 15:04:46;;;;;;;1.67;0.52;;;;;;;;;;5093963;28;20619;-76
2022/06/12 15:07:12;;;;;;;0.20;0.10;;;;;;;;;;5112253;28;20038;-77
2022/06/12 15:09:38;;;;;;;0.13;0.13;;;;;;;;;;5108507;28;20020;-77
2022/06/12 15:12:04;;;;;;;0.20;0.20;;;;;;;;;;5072845;28;20024;-77
2022/06/12 15:14:35;;;;;;;0.98;0.63;;;;;;;;;;5075109;28;20013;-77
2022/06/12 15:17:03;;;;;;;1.33;1.02;;;;;;;;;;5109696;28;20030;-77
2022/06/12 15:19:31;;;;;;;1.05;0.43;;;;;;;;;;5108958;28;20039;-76
2022/06/12 15:21:57;;;;;;;3.40;0.75;;;;;;;;;;5116092;28;20036;-76
2022/06/12 15:24:24;;;;;;;0.35;0.35;;;;;;;;;;5098143;28;20023;-76
2022/06/12 15:29:45;;;;;;;0.52;0.22;;;;;;;;;;5093624;28;20033;-78
2022/06/12 15:32:26;;;;;;;0.47;0.35;;;;;;;;;;5115147;28;20042;-76
2022/06/12 15:34:53;;;;;;;0.30;0.30;;;;;;;;;;5098002;28;20093;-76
2022/06/12 15:38:01;;;;;;;0.68;0.52;;;;;;;;;;5115499;28;20015;-79
2022/06/12 15:40:27;;;;;;;0.10;0.10;;;;;;;;;;5087969;28;20039;-76
2022/06/12 15:42:52;;;;;;;0.32;0.32;;;;;;;;;;5114686;28;20091;-76
2022/06/12 15:45:18;;;;;;;0.38;0.38;;;;;;;;;;5114337;28;20110;-76
2022/06/12 15:47:43;;;;;;;0.40;0.20;;;;;;;;;;5113646;28;20168;-76